Time;durP1;ratioP1;P1;durP2;ratioP2;P2;SDS_P1;SDS_P2;PMS_P1;PMS_P2;Temp;Humidity;BMP_temperature;BMP_pressure;BME280_temperature;BME280_humidity;BME280_pressure;Samples;Min_cycle;Max_cycle;Signal;HPM_P1;HPM_P2
2024/04/18 00:01:20;;;;;;;7.20;4.90;;;;;;;30.25;79.44;100818.31;5390594;26;69373;-31
2024/04/18 00:03:51;;;;;;;7.38;4.82;;;;;;;30.33;77.13;100830.75;5383184;26;65455;-31
2024/04/18 00:06:22;;;;;;;8.35;4.35;;;;;;;30.37;78.90;100826.56;5381525;26;69627;-31
2024/04/18 00:08:53;;;;;;;5.63;4.80;;;;;;;30.42;77.54;100835.72;5380287;26;65121;-31
2024/04/18 00:11:27;;;;;;;4.88;4.47;;;;;;;30.46;79.62;100845.03;5379756;26;68753;-31
2024/04/18 00:13:59;;;;;;;4.60;4.22;;;;;;;30.47;77.37;100849.38;5380876;26;64733;-31
2024/04/18 00:16:39;;;;;;;5.80;5.10;;;;;;;30.53;81.02;100846.84;5395307;26;69069;-30
2024/04/18 00:19:18;;;;;;;11.93;5.80;;;;;;;30.49;84.55;100851.88;5376359;26;65057;-30
2024/04/18 00:22:32;;;;;;;10.88;5.25;;;;;;;30.58;87.62;100866.81;5375007;26;68709;-31
2024/04/18 00:25:10;;;;;;;8.93;6.00;;;;;;;30.59;85.23;100876.63;5381152;26;63719;-31
2024/04/18 00:27:56;;;;;;;7.93;5.00;;;;;;;30.65;85.50;100881.16;5380277;26;68518;-32
2024/04/18 00:30:42;;;;;;;7.88;4.45;;;;;;;30.68;85.74;100880.72;5383743;26;63660;-31
2024/04/18 00:33:13;;;;;;;6.15;4.90;;;;;;;30.69;88.00;100886.94;5380032;26;68184;-30
2024/04/18 00:35:44;;;;;;;9.95;5.57;;;;;;;30.73;89.56;100889.00;5386643;26;65158;-31
2024/04/18 00:38:16;;;;;;;8.48;6.78;;;;;;;30.77;88.20;100892.09;5382362;26;68700;-32
2024/04/18 00:40:52;;;;;;;8.43;6.53;;;;;;;30.73;88.42;100880.88;5379294;26;65525;-31
2024/04/18 00:43:23;;;;;;;9.38;5.80;;;;;;;30.83;87.51;100893.13;5351767;26;68665;-32
2024/04/18 00:45:57;;;;;;;6.03;5.55;;;;;;;30.81;89.38;100871.66;5380323;26;64513;-31
2024/04/18 00:48:29;;;;;;;6.10;5.50;;;;;;;30.88;88.15;100896.84;5383476;26;68687;-31
2024/04/18 00:51:02;;;;;;;12.87;6.07;;;;;;;30.87;89.98;100889.78;5384130;26;64190;-32
2024/04/18 00:53:33;;;;;;;10.25;6.72;;;;;;;30.94;89.89;100903.25;5358639;26;68584;-30
2024/04/18 00:56:23;;;;;;;6.88;6.15;;;;;;;30.96;87.51;100900.34;5384302;26;65099;-31
2024/04/18 00:59:15;;;;;;;14.13;4.88;;;;;;;30.94;90.02;100897.84;5382225;26;67972;-32
2024/04/18 01:02:06;;;;;;;9.13;4.82;;;;;;;31.00;87.46;100905.06;5379754;26;64925;-30
2024/04/18 01:04:39;;;;;;;8.15;5.05;;;;;;;31.01;87.26;100901.34;5383348;26;68713;-31
2024/04/18 01:07:12;;;;;;;6.60;5.20;;;;;;;31.04;89.07;100900.88;5383393;26;63842;-31
2024/04/18 01:09:50;;;;;;;6.78;4.50;;;;;;;30.84;88.96;100870.41;5376397;26;69226;-31
2024/04/18 01:12:21;;;;;;;7.38;4.88;;;;;;;31.10;87.49;100907.31;5387997;26;65067;-32
2024/04/18 01:14:52;;;;;;;7.03;4.13;;;;;;;31.11;86.38;100898.94;5381809;26;67502;-30
2024/04/18 01:17:33;;;;;;;7.68;3.80;;;;;;;31.19;86.14;100905.13;5383353;26;65079;-30
2024/04/18 01:20:06;;;;;;;6.90;4.55;;;;;;;31.22;87.44;100918.25;5383752;26;69322;-31
2024/04/18 01:22:37;;;;;;;5.90;4.68;;;;;;;31.25;88.08;100924.03;5378511;26;64801;-31
2024/04/18 01:25:08;;;;;;;5.15;4.75;;;;;;;31.26;87.92;100916.72;5382207;26;69289;-31
2024/04/18 01:27:38;;;;;;;5.57;4.95;;;;;;;31.27;88.65;100915.69;5381573;26;64619;-31
2024/04/18 01:30:10;;;;;;;7.45;5.93;;;;;;;31.33;88.17;100929.19;5380971;26;69267;-31
2024/04/18 01:32:40;;;;;;;10.80;6.68;;;;;;;31.38;87.89;100920.41;5377672;26;64950;-31
2024/04/18 01:35:11;;;;;;;10.48;6.53;;;;;;;31.45;86.54;100925.78;5381357;26;67788;-31
2024/04/18 01:37:48;;;;;;;13.18;6.13;;;;;;;31.49;86.35;100930.53;5380632;26;65132;-31
2024/04/18 01:40:19;;;;;;;14.70;5.43;;;;;;;31.55;85.77;100932.34;5381317;26;68553;-31
2024/04/18 01:43:08;;;;;;;11.77;6.10;;;;;;;31.58;87.65;100937.31;5378211;26;64916;-30
2024/04/18 01:45:57;;;;;;;6.20;5.60;;;;;;;31.64;86.18;100934.75;5388893;26;68644;-32
2024/04/18 01:48:28;;;;;;;11.65;5.57;;;;;;;31.66;88.11;100929.94;5383186;26;66062;-30
2024/04/18 01:51:17;;;;;;;9.02;5.82;;;;;;;31.69;86.85;100929.50;5388667;26;67798;-31
2024/04/18 01:53:48;;;;;;;11.30;5.30;;;;;;;31.69;88.00;100932.22;5352075;26;65445;-31
2024/04/18 01:56:19;;;;;;;6.53;5.32;;;;;;;31.75;86.82;100921.28;5374032;26;67612;-32
2024/04/18 01:58:51;;;;;;;14.45;10.20;;;;;;;31.69;86.53;100905.09;5384270;26;66039;-30
2024/04/18 02:01:24;;;;;;;13.30;7.87;;;;;;;31.75;86.88;100913.16;5385871;26;67881;-31
2024/04/18 02:03:55;;;;;;;12.82;7.75;;;;;;;31.85;87.66;100920.78;5368480;26;64951;-31
2024/04/18 02:06:26;;;;;;;12.13;6.35;;;;;;;31.97;85.58;100924.41;5381486;26;68624;-31
2024/04/18 02:09:18;;;;;;;10.43;6.03;;;;;;;32.04;85.06;100922.47;5385547;26;64325;-30
2024/04/18 02:11:51;;;;;;;5.63;5.15;;;;;;;32.08;85.16;100924.72;5382656;26;68301;-31
2024/04/18 02:14:41;;;;;;;6.75;5.60;;;;;;;32.13;84.78;100922.16;5383913;26;65164;-30
2024/04/18 02:17:12;;;;;;;5.30;4.80;;;;;;;32.14;84.28;100918.38;5383229;26;69229;-31
2024/04/18 02:20:03;;;;;;;5.75;5.13;;;;;;;32.20;84.11;100920.16;5386913;26;65161;-30
2024/04/18 02:22:43;;;;;;;7.95;4.65;;;;;;;32.20;84.81;100912.84;5385858;26;68245;-32
2024/04/18 02:25:32;;;;;;;5.60;4.40;;;;;;;32.25;84.17;100912.16;5371138;26;64091;-29
2024/04/18 02:28:03;;;;;;;7.38;4.95;;;;;;;32.28;83.21;100914.41;5384310;26;68756;-31
2024/04/18 02:30:33;;;;;;;4.88;4.47;;;;;;;32.32;82.50;100902.06;5386678;26;65050;-30
2024/04/18 02:33:15;;;;;;;7.38;4.20;;;;;;;32.37;83.07;100901.34;5362261;26;68314;-31
2024/04/18 02:35:48;;;;;;;8.13;4.63;;;;;;;32.40;82.39;100912.59;5385058;26;65118;-30
2024/04/18 02:38:37;;;;;;;4.70;4.30;;;;;;;32.43;82.34;100901.28;5382104;26;68712;-33
2024/04/18 02:41:08;;;;;;;5.05;4.60;;;;;;;32.47;82.89;100905.22;5394344;26;64573;-31
2024/04/18 02:43:54;;;;;;;4.90;4.50;;;;;;;32.27;81.41;100862.03;5390268;26;68843;-31
2024/04/18 02:46:25;;;;;;;;;;;;;;;32.47;84.25;100899.78;5386734;26;65042;-30
2024/04/18 02:49:13;;;;;;;5.78;3.88;;;;;;;32.58;81.44;100897.34;5381419;26;67768;-30
2024/04/18 02:51:58;;;;;;;4.05;3.75;;;;;;;32.61;82.05;100894.97;5385250;26;64849;-31
2024/04/18 02:54:47;;;;;;;4.32;3.92;;;;;;;32.69;81.78;100891.09;5384945;26;68921;-30
2024/04/18 02:57:18;;;;;;;5.75;4.03;;;;;;;32.71;81.12;100891.72;5384175;26;66639;-30
2024/04/18 02:59:50;;;;;;;4.63;3.70;;;;;;;32.73;81.96;100878.72;5384117;26;68746;-30
2024/04/18 03:02:25;;;;;;;5.55;4.18;;;;;;;32.82;80.95;100885.47;5363423;26;64753;-32
2024/04/18 03:05:17;;;;;;;3.90;3.60;;;;;;;32.87;80.38;100888.28;5382660;26;68881;-32
2024/04/18 03:07:58;;;;;;;4.57;4.18;;;;;;;32.88;81.12;100884.53;5384993;26;64606;-31
2024/04/18 03:10:51;;;;;;;5.20;4.70;;;;;;;32.95;79.89;100878.97;5367362;26;68586;-30
2024/04/18 03:13:38;;;;;;;4.65;3.55;;;;;;;32.99;80.59;100876.63;5363196;26;64899;-31
2024/04/18 03:16:27;;;;;;;4.80;4.30;;;;;;;32.90;80.66;100843.53;5385611;26;68586;-31
2024/04/18 03:19:18;;;;;;;4.55;3.80;;;;;;;33.08;80.14;100858.94;5381913;26;64526;-31
2024/04/18 03:21:58;;;;;;;4.40;3.80;;;;;;;33.15;79.99;100862.34;5384846;26;69295;-31
2024/04/18 03:24:49;;;;;;;3.65;3.35;;;;;;;33.19;79.83;100860.00;5385795;26;64350;-32
2024/04/18 03:27:29;;;;;;;5.57;3.72;;;;;;;33.24;79.68;100854.66;5386490;26;68612;-30
2024/04/18 03:30:01;;;;;;;5.80;3.63;;;;;;;33.27;80.04;100846.88;5380482;26;65354;-32
2024/04/18 03:32:38;;;;;;;9.15;4.93;;;;;;;33.30;79.87;100857.28;5381730;26;68287;-31
2024/04/18 03:35:09;;;;;;;6.70;4.72;;;;;;;33.34;78.94;100841.31;5382369;26;64552;-32
2024/04/18 03:37:39;;;;;;;7.28;5.28;;;;;;;33.35;79.29;100843.81;5368403;26;69044;-34
2024/04/18 03:40:28;;;;;;;7.40;5.80;;;;;;;33.39;79.47;100846.88;5385733;26;65423;-31
2024/04/18 03:43:03;;;;;;;12.32;6.05;;;;;;;33.42;78.38;100840.13;5365777;26;68630;-32
2024/04/18 03:45:34;;;;;;;8.13;5.88;;;;;;;33.49;78.77;100838.09;5366173;26;65750;-31
2024/04/18 03:48:22;;;;;;;9.27;8.38;;;;;;;33.51;79.36;100830.53;5388685;26;69042;-30
2024/04/18 03:50:53;;;;;;;9.57;8.87;;;;;;;33.55;79.83;100831.75;5354569;26;66212;-32
2024/04/18 03:53:25;;;;;;;12.15;7.28;;;;;;;33.46;79.26;100809.50;5389390;26;69442;-31
2024/04/18 03:56:22;;;;;;;7.43;6.40;;;;;;;33.62;78.55;100831.59;5388151;26;65328;-31
2024/04/18 03:58:54;;;;;;;8.40;6.10;;;;;;;33.62;78.14;100824.28;5366746;26;67992;-32
2024/04/18 04:01:28;;;;;;;7.30;6.60;;;;;;;33.65;78.13;100821.06;5387076;26;63942;-31
2024/04/18 04:03:59;;;;;;;12.13;8.60;;;;;;;33.70;78.88;100804.84;5386508;26;68986;-32
2024/04/18 04:06:39;;;;;;;15.70;11.90;;;;;;;33.71;78.11;100809.25;5401703;26;65364;-31
2024/04/18 04:09:11;;;;;;;12.32;11.05;;;;;;;33.76;79.06;100808.50;5386014;26;68924;-31
2024/04/18 04:11:42;;;;;;;12.15;10.00;;;;;;;33.81;77.82;100809.44;5399311;26;64834;-31
2024/04/18 04:14:13;;;;;;;11.05;7.80;;;;;;;33.84;77.44;100801.84;5386754;26;69127;-32
2024/04/18 04:17:02;;;;;;;6.40;5.90;;;;;;;33.87;76.33;100801.38;5385519;26;64169;-32
2024/04/18 04:19:33;;;;;;;10.43;4.47;;;;;;;33.87;75.55;100796.75;5402137;26;68777;-31
2024/04/18 04:22:05;;;;;;;6.32;4.47;;;;;;;33.91;76.32;100797.94;5402263;26;65236;-30
2024/04/18 04:24:36;;;;;;;5.32;4.15;;;;;;;33.99;76.12;100783.94;5398091;26;69130;-31
2024/04/18 04:27:31;;;;;;;8.02;4.90;;;;;;;34.00;76.78;100779.31;5386625;26;64366;-32
2024/04/18 04:30:03;;;;;;;6.97;4.68;;;;;;;34.06;76.74;100782.97;5386450;26;68545;-31
2024/04/18 04:32:34;;;;;;;6.85;4.30;;;;;;;34.11;76.08;100774.91;5396497;26;64980;-32
2024/04/18 04:35:25;;;;;;;3.97;3.67;;;;;;;34.16;76.77;100773.09;5365591;26;69476;-35
2024/04/18 04:37:58;;;;;;;8.97;4.37;;;;;;;34.21;76.52;100769.63;5383839;26;65695;-32
2024/04/18 04:40:33;;;;;;;5.95;3.92;;;;;;;34.26;76.24;100762.38;5384301;26;68987;-33
2024/04/18 04:43:04;;;;;;;4.37;3.50;;;;;;;34.26;76.92;100758.81;5384058;26;64873;-31
2024/04/18 04:45:35;;;;;;;3.05;2.80;;;;;;;34.27;75.51;100752.31;5385813;26;68725;-30
2024/04/18 04:48:09;;;;;;;3.80;3.40;;;;;;;34.36;75.31;100759.00;5389759;26;65650;-30
2024/04/18 04:51:01;;;;;;;7.30;3.88;;;;;;;34.02;75.21;100690.09;5380300;26;68819;-31
2024/04/18 04:53:35;;;;;;;6.93;3.88;;;;;;;34.43;75.02;100740.59;5380491;26;63824;-31
2024/04/18 04:56:08;;;;;;;4.22;3.38;;;;;;;34.50;74.28;100745.06;5391044;26;68671;-31
2024/04/18 04:58:39;;;;;;;6.45;2.95;;;;;;;34.54;74.38;100735.31;5385192;26;65546;-30
2024/04/18 05:01:11;;;;;;;7.20;3.05;;;;;;;34.55;74.58;100731.50;5396609;26;69863;-29
2024/04/18 05:03:48;;;;;;;4.45;2.90;;;;;;;34.58;73.78;100734.59;5384658;26;65829;-30
2024/04/18 05:06:26;;;;;;;5.75;3.13;;;;;;;34.60;73.40;100718.00;5372015;26;68687;-31
2024/04/18 05:09:19;;;;;;;4.43;4.03;;;;;;;34.62;74.04;100722.13;5413732;26;64821;-32
2024/04/18 05:11:51;;;;;;;16.52;5.78;;;;;;;34.65;74.25;100710.72;5384746;26;69271;-31
2024/04/18 05:14:36;;;;;;;8.73;6.40;;;;;;;34.72;73.98;100696.13;5397569;26;65068;-32
2024/04/18 05:17:27;;;;;;;4.75;4.28;;;;;;;34.80;74.42;100692.94;5382236;26;68786;-30
2024/04/18 05:20:13;;;;;;;7.10;3.70;;;;;;;34.80;73.89;100680.16;5381964;26;64132;-30
2024/04/18 05:22:46;;;;;;;9.43;3.85;;;;;;;34.87;73.85;100685.41;5408489;26;68947;-30
2024/04/18 05:25:17;;;;;;;10.13;4.00;;;;;;;34.94;73.25;100680.63;5362829;26;64269;-30
2024/04/18 05:28:04;;;;;;;7.85;3.63;;;;;;;34.96;72.61;100672.16;5382940;26;68793;-29
2024/04/18 05:33:26;;;;;;;6.63;3.63;;;;;;;35.01;72.07;100659.44;5363165;26;68060;-31
2024/04/18 05:35:57;;;;;;;5.07;4.30;;;;;;;35.06;72.02;100656.78;5384798;26;65270;-31
2024/04/18 05:38:28;;;;;;;4.05;3.53;;;;;;;35.09;71.74;100650.84;5350004;26;68277;-30
2024/04/18 05:40:59;;;;;;;3.50;3.20;;;;;;;35.12;71.47;100650.31;5396527;26;64201;-31
2024/04/18 05:43:49;;;;;;;5.50;2.85;;;;;;;35.17;72.28;100635.13;5396393;26;68887;-30
2024/04/18 05:46:20;;;;;;;3.78;2.97;;;;;;;35.20;72.27;100626.44;5384907;26;65173;-30
2024/04/18 05:48:51;;;;;;;3.33;3.03;;;;;;;35.20;72.42;100612.78;5389405;26;67735;-31
2024/04/18 05:51:23;;;;;;;6.15;3.13;;;;;;;35.24;73.05;100611.19;5384851;26;65090;-30
2024/04/18 05:54:14;;;;;;;4.40;3.50;;;;;;;35.28;73.00;100599.50;5405333;26;68520;-35
2024/04/18 05:57:03;;;;;;;9.13;3.20;;;;;;;35.32;73.64;100588.91;5400041;26;65122;-30
2024/04/18 05:59:54;;;;;;;10.10;3.45;;;;;;;35.23;74.50;100585.81;5388218;26;67747;-30
2024/04/18 06:02:25;;;;;;;7.35;3.42;;;;;;;35.22;72.41;100577.91;5379101;26;64047;-29
2024/04/18 06:04:58;;;;;;;12.97;3.53;;;;;;;35.13;69.75;100578.38;5387908;26;68568;-32
2024/04/18 06:07:47;;;;;;;11.50;3.10;;;;;;;35.01;67.73;100577.66;5384374;26;65463;-32
2024/04/18 06:10:18;;;;;;;9.10;3.05;;;;;;;34.87;66.37;100566.31;5365006;26;69437;-31
2024/04/18 06:12:50;;;;;;;9.25;2.88;;;;;;;34.81;64.96;100558.34;5375089;26;66152;-31
2024/04/18 06:15:21;;;;;;;5.38;3.08;;;;;;;34.75;64.62;100551.22;5396482;26;70192;-32
2024/04/18 06:17:52;;;;;;;10.05;2.30;;;;;;;34.64;63.50;100545.63;5396071;26;64198;-31
2024/04/18 06:20:24;;;;;;;3.17;2.38;;;;;;;34.57;62.31;100546.91;5386794;26;68959;-33
2024/04/18 06:22:57;;;;;;;3.65;2.30;;;;;;;34.52;61.82;100546.78;5390503;26;65774;-31
2024/04/18 06:25:29;;;;;;;4.03;2.28;;;;;;;34.39;61.34;100534.41;5386106;26;67924;-33
2024/04/18 06:28:00;;;;;;;5.20;2.20;;;;;;;34.33;60.79;100527.25;5385946;26;64453;-31
2024/04/18 06:30:31;;;;;;;3.50;2.47;;;;;;;34.30;61.03;100516.81;5378365;26;68883;-32
2024/04/18 06:33:03;;;;;;;2.55;2.20;;;;;;;34.28;61.05;100524.44;5401440;26;65380;-33
2024/04/18 06:35:34;;;;;;;2.20;2.00;;;;;;;34.21;60.53;100530.91;5403700;26;67954;-31
2024/04/18 06:38:06;;;;;;;2.78;2.00;;;;;;;34.20;60.51;100526.50;5387529;26;64423;-30
2024/04/18 06:40:37;;;;;;;2.30;2.10;;;;;;;34.18;60.11;100515.06;5387639;26;68575;-30
2024/04/18 06:43:08;;;;;;;3.00;2.47;;;;;;;34.15;60.79;100514.72;5393493;26;64618;-28
2024/04/18 06:45:39;;;;;;;2.45;2.10;;;;;;;34.08;60.41;100509.47;5389809;26;68778;-33
2024/04/18 06:48:11;;;;;;;6.05;2.40;;;;;;;34.09;60.17;100505.69;5374492;26;65512;-33
2024/04/18 06:50:42;;;;;;;2.65;2.45;;;;;;;34.02;60.03;100496.84;5378499;26;68777;-29
2024/04/18 06:53:14;;;;;;;2.20;2.05;;;;;;;34.01;60.16;100498.72;5366800;26;64982;-29
2024/04/18 06:55:48;;;;;;;2.25;2.03;;;;;;;33.97;59.07;100492.16;5388866;26;69176;-29
2024/04/18 06:58:19;;;;;;;2.20;2.03;;;;;;;34.03;59.13;100491.16;5387814;26;64472;-32
2024/04/18 07:00:50;;;;;;;2.45;2.22;;;;;;;34.02;59.27;100483.25;5385552;26;68602;-29
2024/04/18 07:03:21;;;;;;;2.30;2.10;;;;;;;33.99;59.68;100478.28;5374443;26;66328;-30
2024/04/18 07:05:52;;;;;;;2.05;1.90;;;;;;;34.00;58.81;100485.38;5384653;26;68645;-31
2024/04/18 07:08:26;;;;;;;2.55;1.60;;;;;;;34.00;59.74;100474.50;5385798;26;65344;-31
2024/04/18 07:10:59;;;;;;;3.78;1.98;;;;;;;33.98;58.51;100468.47;5408213;26;69525;-31
2024/04/18 07:13:31;;;;;;;1.83;1.67;;;;;;;33.64;59.02;100416.88;5376850;26;65035;-31
2024/04/18 07:16:22;;;;;;;2.25;2.05;;;;;;;33.96;59.17;100466.03;5407364;26;68034;-30
2024/04/18 07:18:56;;;;;;;2.05;1.85;;;;;;;33.94;59.13;100461.91;5372715;26;63770;-29
2024/04/18 07:21:27;;;;;;;1.88;1.60;;;;;;;33.78;58.05;100439.91;5382219;26;69663;-32
2024/04/18 07:24:16;;;;;;;1.65;1.55;;;;;;;33.90;59.24;100468.91;5400212;26;64325;-31
2024/04/18 07:26:48;;;;;;;1.95;1.80;;;;;;;33.92;59.35;100455.88;5381294;26;69020;-30
2024/04/18 07:29:22;;;;;;;1.65;1.55;;;;;;;33.96;58.35;100457.03;5393389;26;65057;-31
2024/04/18 07:31:53;;;;;;;1.90;1.80;;;;;;;33.96;59.24;100446.97;5390378;26;68502;-33
2024/04/18 07:34:25;;;;;;;1.90;1.65;;;;;;;33.98;58.94;100444.00;5326683;26;64014;-30
2024/04/18 07:36:56;;;;;;;1.70;1.60;;;;;;;34.02;57.79;100447.88;5399975;26;69603;-30
2024/04/18 07:39:30;;;;;;;2.58;1.83;;;;;;;33.99;58.06;100448.34;5376066;26;63949;-31
2024/04/18 07:42:01;;;;;;;2.47;1.92;;;;;;;34.01;59.10;100432.59;5392151;26;67898;-31
2024/04/18 07:44:32;;;;;;;1.53;1.43;;;;;;;33.98;58.06;100439.38;5387454;26;66202;-34
2024/04/18 07:47:03;;;;;;;1.50;1.40;;;;;;;33.99;58.26;100442.91;5386352;26;68226;-31
2024/04/18 07:49:34;;;;;;;1.70;1.60;;;;;;;34.02;58.66;100434.25;5401963;26;64265;-31
2024/04/18 07:52:11;;;;;;;2.30;2.10;;;;;;;34.03;58.22;100425.00;5387143;26;68625;-30
2024/04/18 07:54:46;;;;;;;1.98;1.73;;;;;;;34.03;58.63;100433.19;5384227;26;64022;-30
2024/04/18 07:57:17;;;;;;;4.55;1.83;;;;;;;34.01;57.51;100425.25;5391622;26;69255;-31
2024/04/18 07:59:48;;;;;;;;;;;;;;;34.02;55.70;100426.09;5383796;26;64519;-31
2024/04/18 08:02:21;;;;;;;3.67;1.90;;;;;;;34.05;58.20;100427.53;5399385;26;69398;-29
2024/04/18 08:04:55;;;;;;;1.92;1.83;;;;;;;34.04;57.25;100415.75;5386826;26;64136;-31
2024/04/18 08:07:31;;;;;;;2.03;1.60;;;;;;;33.98;58.19;100401.25;5384094;26;69755;-31
2024/04/18 08:10:08;;;;;;;2.17;1.33;;;;;;;34.09;58.21;100418.59;5386347;26;63890;-30
2024/04/18 08:12:45;;;;;;;1.67;1.58;;;;;;;34.10;58.37;100409.38;5367633;26;69273;-32
2024/04/18 08:15:23;;;;;;;1.58;1.48;;;;;;;34.11;57.91;100411.00;5383689;26;65201;-31
2024/04/18 08:18:16;;;;;;;1.90;1.80;;;;;;;34.14;57.67;100399.59;5385866;26;69766;-29
2024/04/18 08:20:47;;;;;;;2.20;1.50;;;;;;;34.16;57.09;100413.78;5384708;26;65228;-30
2024/04/18 08:23:20;;;;;;;2.38;2.17;;;;;;;34.19;58.15;100404.28;5383130;26;67599;-29
2024/04/18 08:25:53;;;;;;;1.77;1.55;;;;;;;34.15;57.50;100395.78;5393820;26;65131;-30
2024/04/18 08:28:24;;;;;;;2.03;1.58;;;;;;;34.22;57.74;100396.44;5386684;26;69851;-34
2024/04/18 08:30:55;;;;;;;2.67;2.00;;;;;;;34.21;57.33;100402.97;5374009;26;65084;-31
2024/04/18 08:33:26;;;;;;;4.63;2.17;;;;;;;34.25;57.78;100390.47;5392024;26;67962;-30
2024/04/18 08:35:57;;;;;;;3.23;1.90;;;;;;;34.12;57.38;100360.09;5384511;26;65202;-32
2024/04/18 08:38:28;;;;;;;2.38;1.15;;;;;;;34.23;57.51;100381.72;5374745;26;68634;-31
2024/04/18 08:41:10;;;;;;;1.60;1.50;;;;;;;34.06;57.40;100352.97;5384593;26;65597;-30
2024/04/18 08:43:41;;;;;;;2.13;1.65;;;;;;;34.23;56.97;100381.72;5398145;26;68567;-30
2024/04/18 08:46:16;;;;;;;1.88;1.75;;;;;;;34.27;56.98;100382.06;5383531;26;65152;-31
2024/04/18 08:48:48;;;;;;;1.60;1.50;;;;;;;34.26;56.47;100374.94;5392870;26;68775;-31
2024/04/18 08:51:19;;;;;;;3.90;1.50;;;;;;;34.26;56.85;100374.94;5388977;26;65771;-32
2024/04/18 08:53:51;;;;;;;3.30;1.60;;;;;;;34.28;57.11;100378.25;5380742;26;68434;-34
2024/04/18 08:56:25;;;;;;;1.75;1.27;;;;;;;34.17;57.08;100369.16;5390327;26;64362;-33
2024/04/18 08:58:56;;;;;;;3.92;1.95;;;;;;;34.20;57.46;100376.78;5383043;26;68289;-31
2024/04/18 09:01:28;;;;;;;3.30;1.48;;;;;;;34.18;57.00;100373.50;5400807;26;64848;-30
2024/04/18 09:03:59;;;;;;;4.65;1.52;;;;;;;34.17;57.53;100374.59;5384298;26;68513;-30
2024/04/18 09:06:30;;;;;;;5.78;1.30;;;;;;;34.19;57.32;100372.44;5386876;26;63771;-31
2024/04/18 09:09:11;;;;;;;6.93;1.80;;;;;;;34.14;56.07;100369.66;5391674;26;69408;-31
2024/04/18 09:11:48;;;;;;;3.20;1.50;;;;;;;34.19;56.81;100366.19;5394802;26;65760;-30
2024/04/18 09:14:21;;;;;;;1.75;1.38;;;;;;;34.17;57.54;100362.88;5401830;26;67762;-30
2024/04/18 09:17:01;;;;;;;1.77;1.48;;;;;;;34.17;56.72;100377.31;5402429;26;64103;-29
2024/04/18 09:19:32;;;;;;;1.65;1.45;;;;;;;34.11;56.88;100375.63;5385802;26;69001;-31
2024/04/18 09:22:04;;;;;;;5.80;2.10;;;;;;;34.21;57.03;100385.78;5407894;26;65631;-31
2024/04/18 09:24:37;;;;;;;3.05;1.45;;;;;;;34.17;56.53;100380.03;5398847;26;68447;-30
2024/04/18 09:27:08;;;;;;;1.85;1.50;;;;;;;34.11;56.77;100386.50;5387980;26;65404;-31
2024/04/18 09:29:39;;;;;;;2.72;1.50;;;;;;;34.15;56.55;100379.47;5391009;26;68098;-29
2024/04/18 09:32:14;;;;;;;4.13;1.83;;;;;;;34.31;57.28;100385.09;5391348;26;65920;-31
2024/04/18 09:34:50;;;;;;;4.60;1.73;;;;;;;34.20;57.39;100360.47;5393720;26;68417;-30
2024/04/18 09:37:25;;;;;;;7.72;1.98;;;;;;;34.40;58.92;100370.75;5391131;26;64985;-30
2024/04/18 09:39:58;;;;;;;4.35;1.60;;;;;;;34.55;60.03;100372.81;5384515;26;68236;-30
2024/04/18 09:42:40;;;;;;;3.00;1.25;;;;;;;34.60;61.23;100375.63;5358347;26;64282;-29
2024/04/18 09:45:16;;;;;;;4.47;1.60;;;;;;;34.53;61.40;100349.63;5385013;26;68988;-30
2024/04/18 09:47:50;;;;;;;2.17;1.75;;;;;;;34.56;61.21;100346.44;5380870;26;64429;-29
2024/04/18 09:50:22;;;;;;;10.82;2.88;;;;;;;34.85;61.14;100371.47;5393684;26;68853;-31
2024/04/18 09:52:55;;;;;;;3.72;3.38;;;;;;;34.85;61.32;100360.56;5380158;26;65709;-32
2024/04/18 09:55:26;;;;;;;13.68;6.22;;;;;;;34.93;61.56;100363.63;5384345;26;67642;-31
2024/04/18 09:57:59;;;;;;;21.27;9.27;;;;;;;34.96;62.02;100362.28;5382520;26;63528;-30
2024/04/18 10:00:31;;;;;;;18.77;7.85;;;;;;;35.02;62.29;100377.63;5381355;26;67235;-33
2024/04/18 10:03:06;;;;;;;11.30;8.15;;;;;;;35.04;61.90;100369.97;5384069;26;65213;-30
2024/04/18 10:05:39;;;;;;;8.20;6.95;;;;;;;34.85;62.67;100327.88;5398421;26;67750;-30
2024/04/18 10:08:11;;;;;;;7.90;6.80;;;;;;;35.06;62.50;100356.13;5404906;26;65113;-30
2024/04/18 10:10:47;;;;;;;6.53;5.07;;;;;;;35.15;62.36;100376.38;5387232;26;68646;-29
2024/04/18 10:13:25;;;;;;;9.20;4.68;;;;;;;34.99;62.51;100350.84;5386764;26;64905;-31
2024/04/18 10:16:25;;;;;;;4.10;3.70;;;;;;;35.16;62.82;100382.63;5364195;26;67950;-29
2024/04/18 10:18:56;;;;;;;6.45;3.10;;;;;;;35.16;63.19;100383.47;5359840;26;64349;-29
2024/04/18 10:21:27;;;;;;;11.50;3.10;;;;;;;35.19;63.01;100393.00;5397326;26;69014;-31
2024/04/18 10:24:19;;;;;;;9.50;3.42;;;;;;;35.19;63.36;100388.41;5393148;26;65087;-31
2024/04/18 10:27:15;;;;;;;7.53;2.83;;;;;;;35.21;63.28;100385.41;5383100;26;68740;-30
2024/04/18 10:29:59;;;;;;;16.23;2.92;;;;;;;35.20;63.53;100391.94;5386136;26;64274;-31
2024/04/18 10:32:32;;;;;;;7.68;2.72;;;;;;;35.19;63.89;100387.56;5386789;26;68714;-31
2024/04/18 10:35:03;;;;;;;3.92;2.22;;;;;;;35.06;64.54;100384.22;5395572;26;64991;-30
2024/04/18 10:37:34;;;;;;;3.25;2.28;;;;;;;35.07;64.56;100394.03;5386785;26;68987;-30
2024/04/18 10:40:06;;;;;;;5.18;2.58;;;;;;;35.09;65.33;100400.03;5399095;26;65450;-34
2024/04/18 10:42:38;;;;;;;7.38;2.50;;;;;;;35.12;65.36;100404.97;5391144;26;69483;-29
2024/04/18 10:45:09;;;;;;;3.05;2.50;;;;;;;35.16;65.07;100409.91;5369879;26;65229;-32
2024/04/18 10:47:42;;;;;;;8.50;2.83;;;;;;;35.03;65.16;100414.69;5386639;26;68670;-30
2024/04/18 10:50:19;;;;;;;3.75;2.95;;;;;;;35.02;65.31;100409.47;5401530;26;65192;-30
2024/04/18 10:52:50;;;;;;;10.90;3.70;;;;;;;34.95;65.25;100412.44;5378396;26;68721;-30
2024/04/18 10:55:24;;;;;;;3.83;3.53;;;;;;;34.90;65.38;100396.03;5402787;26;64314;-31
2024/04/18 10:57:55;;;;;;;5.65;3.72;;;;;;;34.94;65.63;100410.81;5389536;26;67998;-29
2024/04/18 11:00:27;;;;;;;3.95;3.50;;;;;;;34.94;65.92;100413.53;5410606;26;65373;-31
2024/04/18 11:02:57;;;;;;;;;;;;;;;34.80;66.09;100412.28;5388205;26;68806;-34
2024/04/18 11:05:29;;;;;;;5.85;4.25;;;;;;;34.97;65.39;100406.75;5397108;26;65259;-31
2024/04/18 11:08:00;;;;;;;7.00;3.65;;;;;;;35.07;66.08;100402.19;5368379;26;69199;-29
2024/04/18 11:10:34;;;;;;;6.85;4.30;;;;;;;35.03;65.98;100411.97;5365922;26;64590;-30
2024/04/18 11:13:05;;;;;;;4.10;3.40;;;;;;;35.02;66.02;100409.47;5391145;26;68711;-30
2024/04/18 11:15:36;;;;;;;5.50;3.63;;;;;;;35.10;66.12;100422.66;5366325;26;63950;-29
2024/04/18 11:18:07;;;;;;;6.95;3.63;;;;;;;35.05;66.94;100425.31;5374433;26;68089;-30
2024/04/18 11:20:38;;;;;;;4.57;3.50;;;;;;;35.01;66.53;100413.31;5387170;26;65052;-32
2024/04/18 11:23:09;;;;;;;4.37;3.13;;;;;;;35.06;66.54;100411.47;5389902;26;68528;-29
2024/04/18 11:25:45;;;;;;;4.25;3.22;;;;;;;35.08;66.58;100409.31;5404651;26;65154;-30
2024/04/18 11:28:18;;;;;;;7.07;2.50;;;;;;;34.90;66.60;100396.84;5391765;26;68372;-30
2024/04/18 11:30:49;;;;;;;4.63;2.47;;;;;;;35.06;66.61;100422.38;5402608;26;64960;-29
2024/04/18 11:33:20;;;;;;;3.65;2.05;;;;;;;35.06;66.66;100418.84;5385190;26;69058;-29
2024/04/18 11:35:52;;;;;;;2.95;2.28;;;;;;;35.06;66.43;100430.56;5384691;26;64987;-30
2024/04/18 11:38:24;;;;;;;9.33;2.83;;;;;;;34.86;66.89;100406.63;5382110;26;68588;-31
2024/04/18 11:40:57;;;;;;;14.77;3.85;;;;;;;35.01;67.11;100435.91;5387955;26;65359;-31
2024/04/18 11:43:28;;;;;;;11.33;3.57;;;;;;;34.97;67.04;100434.81;5391188;26;68655;-34
2024/04/18 11:46:01;;;;;;;10.53;3.90;;;;;;;34.96;66.85;100444.03;5395871;26;65052;-30
2024/04/18 11:48:31;;;;;;;5.80;3.22;;;;;;;35.00;66.91;100444.38;5383148;26;67801;-31
2024/04/18 11:51:03;;;;;;;7.28;2.95;;;;;;;34.96;67.46;100449.50;5357319;26;64280;-30
2024/04/18 11:53:34;;;;;;;7.18;3.00;;;;;;;34.91;67.94;100453.03;5383595;26;68220;-31
2024/04/18 11:56:05;;;;;;;3.33;3.03;;;;;;;34.91;67.80;100446.75;5359607;26;65250;-30
2024/04/18 11:58:37;;;;;;;5.15;2.83;;;;;;;34.89;68.40;100465.25;5394622;26;69415;-31
2024/04/18 12:01:11;;;;;;;5.45;3.20;;;;;;;34.90;67.81;100467.72;5422822;26;65748;-30
2024/04/18 12:03:42;;;;;;;4.78;2.50;;;;;;;34.86;68.07;100449.44;5369356;26;67803;-29
2024/04/18 12:06:32;;;;;;;4.15;2.67;;;;;;;34.87;68.79;100467.41;5385072;26;64738;-29